KMOR

Moore-Murrell Airport

Morristown, Tennessee, USA
METAR KMOR 220655Z AUTO 00000KT 10SM BKN065 BKN110 21/20 A3013 RMK A01
Observed Flight Rules
Sep-22 @ 06:55 UTC (28 minutes ago) Visual Flight Rules
Visibility Clouds
10 miles
Temperatures Readings
Current 21°C / 70°F
Dewpoint 20°C / 68°F
Humidity 94%
Altimeter 30.13" Hg
Pressure 1020 hPa
Elevation 400
METAR KMOR 220655Z AUTO 00000KT 10SM BKN065 BKN110 21/20 A3013 RMK A01
Observed Flight Rules
Sep-22 @ 06:55 UTC
(28 minutes ago)
VFR
Clouds
Temperature Dewpoint
21°C / 70°F 20°C / 68°F
Humidity Altimeter Pressure
94% 30.13" Hg 1020 hPa